sensor_id;sensor_type;location;lat;lon;timestamp;P1;durP1;ratioP1;P2;durP2;ratioP2
48629;SDS011;34426;52.180;4.462;2023-03-05T00:00:53;15.55;;;2.00;;
48629;SDS011;34426;52.180;4.462;2023-03-05T00:03:19;16.30;;;2.53;;
48629;SDS011;34426;52.180;4.462;2023-03-05T00:05:44;14.05;;;2.10;;
48629;SDS011;34426;52.180;4.462;2023-03-05T00:08:10;6.68;;;1.45;;
48629;SDS011;34426;52.180;4.462;2023-03-05T00:10:35;12.48;;;1.70;;
48629;SDS011;34426;52.180;4.462;2023-03-05T00:13:01;17.55;;;2.20;;
48629;SDS011;34426;52.180;4.462;2023-03-05T00:15:26;16.30;;;1.98;;
48629;SDS011;34426;52.180;4.462;2023-03-05T00:17:53;18.17;;;2.35;;
48629;SDS011;34426;52.180;4.462;2023-03-05T00:20:18;11.20;;;1.70;;
48629;SDS011;34426;52.180;4.462;2023-03-05T00:22:44;18.33;;;2.25;;
48629;SDS011;34426;52.180;4.462;2023-03-05T00:25:10;11.82;;;1.88;;
48629;SDS011;34426;52.180;4.462;2023-03-05T00:27:35;12.32;;;2.63;;
48629;SDS011;34426;52.180;4.462;2023-03-05T00:30:01;14.98;;;1.98;;
48629;SDS011;34426;52.180;4.462;2023-03-05T00:32:26;14.30;;;2.50;;
48629;SDS011;34426;52.180;4.462;2023-03-05T00:34:53;15.07;;;2.15;;
48629;SDS011;34426;52.180;4.462;2023-03-05T00:37:19;13.55;;;2.17;;
48629;SDS011;34426;52.180;4.462;2023-03-05T00:39:44;11.65;;;2.47;;
48629;SDS011;34426;52.180;4.462;2023-03-05T00:42:10;15.93;;;2.65;;
48629;SDS011;34426;52.180;4.462;2023-03-05T00:44:35;12.85;;;2.47;;
48629;SDS011;34426;52.180;4.462;2023-03-05T00:47:01;11.90;;;1.80;;
48629;SDS011;34426;52.180;4.462;2023-03-05T00:49:26;9.27;;;2.10;;
48629;SDS011;34426;52.180;4.462;2023-03-05T00:51:53;11.95;;;1.65;;
48629;SDS011;34426;52.180;4.462;2023-03-05T00:54:19;12.18;;;1.50;;
48629;SDS011;34426;52.180;4.462;2023-03-05T00:56:45;14.30;;;2.03;;
48629;SDS011;34426;52.180;4.462;2023-03-05T00:59:10;9.70;;;2.05;;
48629;SDS011;34426;52.180;4.462;2023-03-05T01:01:36;11.73;;;2.28;;
48629;SDS011;34426;52.180;4.462;2023-03-05T01:04:01;10.05;;;2.03;;
48629;SDS011;34426;52.180;4.462;2023-03-05T01:06:27;9.55;;;1.55;;
48629;SDS011;34426;52.180;4.462;2023-03-05T01:08:54;16.75;;;2.35;;
48629;SDS011;34426;52.180;4.462;2023-03-05T01:11:20;13.00;;;2.03;;
48629;SDS011;34426;52.180;4.462;2023-03-05T01:13:45;19.13;;;2.65;;
48629;SDS011;34426;52.180;4.462;2023-03-05T01:16:11;17.23;;;2.20;;
48629;SDS011;34426;52.180;4.462;2023-03-05T01:18:36;9.77;;;1.70;;
48629;SDS011;34426;52.180;4.462;2023-03-05T01:21:02;11.00;;;1.75;;
48629;SDS011;34426;52.180;4.462;2023-03-05T01:23:28;8.15;;;1.55;;
48629;SDS011;34426;52.180;4.462;2023-03-05T01:25:56;10.93;;;1.75;;
48629;SDS011;34426;52.180;4.462;2023-03-05T01:28:23;15.35;;;2.38;;
48629;SDS011;34426;52.180;4.462;2023-03-05T01:30:49;12.15;;;1.55;;
48629;SDS011;34426;52.180;4.462;2023-03-05T01:33:15;9.82;;;1.30;;
48629;SDS011;34426;52.180;4.462;2023-03-05T01:35:40;10.40;;;1.77;;
48629;SDS011;34426;52.180;4.462;2023-03-05T01:38:06;11.23;;;1.50;;
48629;SDS011;34426;52.180;4.462;2023-03-05T01:40:31;12.70;;;1.55;;
48629;SDS011;34426;52.180;4.462;2023-03-05T01:42:59;13.23;;;1.73;;
48629;SDS011;34426;52.180;4.462;2023-03-05T01:45:30;7.70;;;1.33;;
48629;SDS011;34426;52.180;4.462;2023-03-05T01:47:56;13.18;;;2.20;;
48629;SDS011;34426;52.180;4.462;2023-03-05T01:50:22;15.32;;;1.60;;
48629;SDS011;34426;52.180;4.462;2023-03-05T01:52:51;9.38;;;1.17;;
48629;SDS011;34426;52.180;4.462;2023-03-05T01:55:20;15.13;;;1.85;;
48629;SDS011;34426;52.180;4.462;2023-03-05T01:57:49;9.85;;;1.50;;
48629;SDS011;34426;52.180;4.462;2023-03-05T02:00:20;10.02;;;1.75;;
48629;SDS011;34426;52.180;4.462;2023-03-05T02:02:49;13.60;;;1.83;;
48629;SDS011;34426;52.180;4.462;2023-03-05T02:05:17;6.32;;;1.02;;
48629;SDS011;34426;52.180;4.462;2023-03-05T02:07:46;9.57;;;2.03;;
48629;SDS011;34426;52.180;4.462;2023-03-05T02:10:15;9.50;;;1.40;;
48629;SDS011;34426;52.180;4.462;2023-03-05T02:12:43;10.85;;;1.33;;
48629;SDS011;34426;52.180;4.462;2023-03-05T02:15:09;14.32;;;1.58;;
48629;SDS011;34426;52.180;4.462;2023-03-05T02:17:37;7.85;;;1.70;;
48629;SDS011;34426;52.180;4.462;2023-03-05T02:20:04;8.32;;;1.85;;
48629;SDS011;34426;52.180;4.462;2023-03-05T02:22:33;7.13;;;1.38;;
48629;SDS011;34426;52.180;4.462;2023-03-05T02:24:58;19.38;;;1.73;;
48629;SDS011;34426;52.180;4.462;2023-03-05T02:27:25;8.85;;;1.52;;
48629;SDS011;34426;52.180;4.462;2023-03-05T02:29:55;9.68;;;1.85;;
48629;SDS011;34426;52.180;4.462;2023-03-05T02:32:20;13.20;;;1.40;;
48629;SDS011;34426;52.180;4.462;2023-03-05T02:34:46;10.07;;;1.40;;
48629;SDS011;34426;52.180;4.462;2023-03-05T02:37:11;14.15;;;1.73;;
48629;SDS011;34426;52.180;4.462;2023-03-05T02:39:38;12.65;;;1.73;;
48629;SDS011;34426;52.180;4.462;2023-03-05T02:42:04;11.10;;;1.63;;
48629;SDS011;34426;52.180;4.462;2023-03-05T02:44:30;6.53;;;1.58;;
48629;SDS011;34426;52.180;4.462;2023-03-05T02:46:55;12.45;;;1.60;;
48629;SDS011;34426;52.180;4.462;2023-03-05T02:49:21;8.05;;;1.45;;
48629;SDS011;34426;52.180;4.462;2023-03-05T02:51:46;14.20;;;1.52;;
48629;SDS011;34426;52.180;4.462;2023-03-05T02:54:12;7.38;;;1.35;;
48629;SDS011;34426;52.180;4.462;2023-03-05T02:56:39;7.75;;;1.08;;
48629;SDS011;34426;52.180;4.462;2023-03-05T02:59:04;6.63;;;0.80;;
48629;SDS011;34426;52.180;4.462;2023-03-05T03:01:30;8.98;;;1.30;;
48629;SDS011;34426;52.180;4.462;2023-03-05T03:03:55;10.57;;;1.00;;
48629;SDS011;34426;52.180;4.462;2023-03-05T03:06:21;9.25;;;1.00;;
48629;SDS011;34426;52.180;4.462;2023-03-05T03:08:46;6.47;;;0.80;;
48629;SDS011;34426;52.180;4.462;2023-03-05T03:11:12;10.48;;;1.85;;
48629;SDS011;34426;52.180;4.462;2023-03-05T03:13:39;4.95;;;0.93;;
48629;SDS011;34426;52.180;4.462;2023-03-05T03:16:06;7.13;;;0.60;;
48629;SDS011;34426;52.180;4.462;2023-03-05T03:18:33;3.60;;;0.52;;
48629;SDS011;34426;52.180;4.462;2023-03-05T03:20:59;7.15;;;0.90;;
48629;SDS011;34426;52.180;4.462;2023-03-05T03:23:25;5.75;;;0.77;;
48629;SDS011;34426;52.180;4.462;2023-03-05T03:25:50;3.33;;;0.63;;
48629;SDS011;34426;52.180;4.462;2023-03-05T03:28:16;6.05;;;0.60;;
48629;SDS011;34426;52.180;4.462;2023-03-05T03:30:43;5.72;;;1.30;;
48629;SDS011;34426;52.180;4.462;2023-03-05T03:33:09;4.63;;;0.68;;
48629;SDS011;34426;52.180;4.462;2023-03-05T03:35:34;3.63;;;0.68;;
48629;SDS011;34426;52.180;4.462;2023-03-05T03:38:00;6.20;;;0.70;;
48629;SDS011;34426;52.180;4.462;2023-03-05T03:40:25;4.30;;;0.57;;
48629;SDS011;34426;52.180;4.462;2023-03-05T03:42:51;5.13;;;0.73;;
48629;SDS011;34426;52.180;4.462;2023-03-05T03:45:17;5.05;;;0.80;;
48629;SDS011;34426;52.180;4.462;2023-03-05T03:47:44;7.40;;;0.90;;
48629;SDS011;34426;52.180;4.462;2023-03-05T03:50:12;6.93;;;1.02;;
48629;SDS011;34426;52.180;4.462;2023-03-05T03:52:37;6.63;;;1.00;;
48629;SDS011;34426;52.180;4.462;2023-03-05T03:55:03;5.22;;;0.65;;
48629;SDS011;34426;52.180;4.462;2023-03-05T03:57:29;5.20;;;0.88;;
48629;SDS011;34426;52.180;4.462;2023-03-05T03:59:55;7.22;;;0.90;;
48629;SDS011;34426;52.180;4.462;2023-03-05T04:02:20;10.55;;;0.80;;
48629;SDS011;34426;52.180;4.462;2023-03-05T04:04:47;9.07;;;1.00;;
48629;SDS011;34426;52.180;4.462;2023-03-05T04:07:13;6.20;;;0.70;;
48629;SDS011;34426;52.180;4.462;2023-03-05T04:09:38;11.50;;;1.15;;
48629;SDS011;34426;52.180;4.462;2023-03-05T04:12:04;5.82;;;0.95;;
48629;SDS011;34426;52.180;4.462;2023-03-05T04:14:30;9.05;;;1.08;;
48629;SDS011;34426;52.180;4.462;2023-03-05T04:16:56;10.27;;;1.20;;
48629;SDS011;34426;52.180;4.462;2023-03-05T04:19:21;5.40;;;1.20;;
48629;SDS011;34426;52.180;4.462;2023-03-05T04:21:50;9.60;;;1.05;;
48629;SDS011;34426;52.180;4.462;2023-03-05T04:24:15;7.65;;;1.33;;
48629;SDS011;34426;52.180;4.462;2023-03-05T04:26:40;8.20;;;1.00;;
48629;SDS011;34426;52.180;4.462;2023-03-05T04:29:06;10.05;;;2.10;;
48629;SDS011;34426;52.180;4.462;2023-03-05T04:31:32;13.45;;;1.92;;
48629;SDS011;34426;52.180;4.462;2023-03-05T04:33:58;8.77;;;1.25;;
48629;SDS011;34426;52.180;4.462;2023-03-05T04:36:23;9.90;;;1.65;;
48629;SDS011;34426;52.180;4.462;2023-03-05T04:38:50;8.15;;;0.90;;
48629;SDS011;34426;52.180;4.462;2023-03-05T04:41:16;4.25;;;0.75;;
48629;SDS011;34426;52.180;4.462;2023-03-05T04:43:41;7.18;;;0.88;;
48629;SDS011;34426;52.180;4.462;2023-03-05T04:46:07;7.40;;;0.82;;
48629;SDS011;34426;52.180;4.462;2023-03-05T04:48:32;6.75;;;0.65;;
48629;SDS011;34426;52.180;4.462;2023-03-05T04:50:58;5.13;;;0.80;;
48629;SDS011;34426;52.180;4.462;2023-03-05T04:53:23;5.10;;;0.70;;
48629;SDS011;34426;52.180;4.462;2023-03-05T04:55:52;4.22;;;0.85;;
48629;SDS011;34426;52.180;4.462;2023-03-05T04:58:18;2.50;;;0.50;;
48629;SDS011;34426;52.180;4.462;2023-03-05T05:00:43;3.22;;;0.82;;
48629;SDS011;34426;52.180;4.462;2023-03-05T05:03:09;7.60;;;0.80;;
48629;SDS011;34426;52.180;4.462;2023-03-05T05:05:35;8.25;;;0.68;;
48629;SDS011;34426;52.180;4.462;2023-03-05T05:08:00;3.63;;;0.73;;
48629;SDS011;34426;52.180;4.462;2023-03-05T05:10:26;7.20;;;0.85;;
48629;SDS011;34426;52.180;4.462;2023-03-05T05:12:53;3.30;;;0.70;;
48629;SDS011;34426;52.180;4.462;2023-03-05T05:15:19;6.50;;;0.70;;
48629;SDS011;34426;52.180;4.462;2023-03-05T05:17:45;2.05;;;0.68;;
48629;SDS011;34426;52.180;4.462;2023-03-05T05:20:12;5.45;;;0.52;;
48629;SDS011;34426;52.180;4.462;2023-03-05T05:22:40;4.72;;;0.63;;
48629;SDS011;34426;52.180;4.462;2023-03-05T05:25:06;6.68;;;1.35;;
48629;SDS011;34426;52.180;4.462;2023-03-05T05:27:32;4.43;;;0.88;;
48629;SDS011;34426;52.180;4.462;2023-03-05T05:29:59;8.65;;;0.90;;
48629;SDS011;34426;52.180;4.462;2023-03-05T05:32:25;8.52;;;1.08;;
48629;SDS011;34426;52.180;4.462;2023-03-05T05:34:52;3.63;;;0.80;;
48629;SDS011;34426;52.180;4.462;2023-03-05T05:37:18;11.10;;;1.05;;
48629;SDS011;34426;52.180;4.462;2023-03-05T05:39:44;8.18;;;1.05;;
48629;SDS011;34426;52.180;4.462;2023-03-05T05:42:09;6.78;;;1.50;;
48629;SDS011;34426;52.180;4.462;2023-03-05T05:44:35;11.30;;;1.25;;
48629;SDS011;34426;52.180;4.462;2023-03-05T05:47:01;5.93;;;1.13;;
48629;SDS011;34426;52.180;4.462;2023-03-05T05:49:27;16.13;;;3.20;;
48629;SDS011;34426;52.180;4.462;2023-03-05T05:51:52;3.78;;;0.80;;
48629;SDS011;34426;52.180;4.462;2023-03-05T05:54:21;9.13;;;1.17;;
48629;SDS011;34426;52.180;4.462;2023-03-05T05:56:47;7.55;;;1.25;;
48629;SDS011;34426;52.180;4.462;2023-03-05T05:59:12;7.70;;;0.90;;
48629;SDS011;34426;52.180;4.462;2023-03-05T06:01:38;5.43;;;1.15;;
48629;SDS011;34426;52.180;4.462;2023-03-05T06:04:05;11.07;;;1.10;;
48629;SDS011;34426;52.180;4.462;2023-03-05T06:06:30;12.05;;;1.40;;
48629;SDS011;34426;52.180;4.462;2023-03-05T06:08:56;7.13;;;0.82;;
48629;SDS011;34426;52.180;4.462;2023-03-05T06:11:21;10.30;;;1.00;;
48629;SDS011;34426;52.180;4.462;2023-03-05T06:13:48;11.13;;;1.00;;
48629;SDS011;34426;52.180;4.462;2023-03-05T06:16:14;2.92;;;0.60;;
48629;SDS011;34426;52.180;4.462;2023-03-05T06:18:41;7.70;;;1.00;;
48629;SDS011;34426;52.180;4.462;2023-03-05T06:21:10;5.88;;;0.70;;
48629;SDS011;34426;52.180;4.462;2023-03-05T06:23:37;6.22;;;0.90;;
48629;SDS011;34426;52.180;4.462;2023-03-05T06:26:03;4.20;;;0.80;;
48629;SDS011;34426;52.180;4.462;2023-03-05T06:28:30;7.78;;;1.40;;
48629;SDS011;34426;52.180;4.462;2023-03-05T06:31:00;14.25;;;0.88;;
48629;SDS011;34426;52.180;4.462;2023-03-05T06:33:26;5.65;;;0.60;;
48629;SDS011;34426;52.180;4.462;2023-03-05T06:35:51;5.70;;;0.60;;
48629;SDS011;34426;52.180;4.462;2023-03-05T06:38:18;6.10;;;1.10;;
48629;SDS011;34426;52.180;4.462;2023-03-05T06:40:44;6.95;;;1.23;;
48629;SDS011;34426;52.180;4.462;2023-03-05T06:43:09;5.05;;;0.82;;
48629;SDS011;34426;52.180;4.462;2023-03-05T06:45:35;5.85;;;1.15;;
48629;SDS011;34426;52.180;4.462;2023-03-05T06:48:00;5.38;;;1.00;;
48629;SDS011;34426;52.180;4.462;2023-03-05T06:50:26;9.57;;;1.10;;
48629;SDS011;34426;52.180;4.462;2023-03-05T06:52:51;8.02;;;1.20;;
48629;SDS011;34426;52.180;4.462;2023-03-05T06:55:18;7.80;;;0.88;;
48629;SDS011;34426;52.180;4.462;2023-03-05T06:57:44;1.98;;;0.47;;
48629;SDS011;34426;52.180;4.462;2023-03-05T07:00:10;8.73;;;1.10;;
48629;SDS011;34426;52.180;4.462;2023-03-05T07:02:36;6.25;;;0.82;;
48629;SDS011;34426;52.180;4.462;2023-03-05T07:05:02;3.63;;;0.68;;
48629;SDS011;34426;52.180;4.462;2023-03-05T07:07:28;4.10;;;0.95;;
48629;SDS011;34426;52.180;4.462;2023-03-05T07:09:53;4.45;;;0.90;;
48629;SDS011;34426;52.180;4.462;2023-03-05T07:12:20;2.85;;;0.65;;
48629;SDS011;34426;52.180;4.462;2023-03-05T07:14:46;10.15;;;1.02;;
48629;SDS011;34426;52.180;4.462;2023-03-05T07:17:11;8.10;;;0.70;;
48629;SDS011;34426;52.180;4.462;2023-03-05T07:19:37;6.88;;;1.20;;
48629;SDS011;34426;52.180;4.462;2023-03-05T07:22:02;7.75;;;1.08;;
48629;SDS011;34426;52.180;4.462;2023-03-05T07:24:27;4.70;;;1.20;;
48629;SDS011;34426;52.180;4.462;2023-03-05T07:26:55;9.07;;;1.55;;
48629;SDS011;34426;52.180;4.462;2023-03-05T07:29:22;8.25;;;1.10;;
48629;SDS011;34426;52.180;4.462;2023-03-05T07:31:48;8.23;;;1.08;;
48629;SDS011;34426;52.180;4.462;2023-03-05T07:34:14;4.43;;;1.10;;
48629;SDS011;34426;52.180;4.462;2023-03-05T07:36:39;12.00;;;1.35;;
48629;SDS011;34426;52.180;4.462;2023-03-05T07:39:05;3.58;;;0.77;;
48629;SDS011;34426;52.180;4.462;2023-03-05T07:41:31;15.38;;;2.53;;
48629;SDS011;34426;52.180;4.462;2023-03-05T07:43:56;13.65;;;1.35;;
48629;SDS011;34426;52.180;4.462;2023-03-05T07:46:24;7.78;;;1.23;;
48629;SDS011;34426;52.180;4.462;2023-03-05T07:48:51;7.07;;;1.27;;
48629;SDS011;34426;52.180;4.462;2023-03-05T07:51:17;9.70;;;1.15;;
48629;SDS011;34426;52.180;4.462;2023-03-05T07:53:44;7.93;;;1.20;;
48629;SDS011;34426;52.180;4.462;2023-03-05T07:56:11;12.65;;;1.52;;
48629;SDS011;34426;52.180;4.462;2023-03-05T07:58:37;9.10;;;1.00;;
48629;SDS011;34426;52.180;4.462;2023-03-05T08:01:02;14.52;;;1.33;;
48629;SDS011;34426;52.180;4.462;2023-03-05T08:03:29;9.90;;;1.10;;
48629;SDS011;34426;52.180;4.462;2023-03-05T08:05:55;11.10;;;1.50;;
48629;SDS011;34426;52.180;4.462;2023-03-05T08:08:20;7.22;;;1.35;;
48629;SDS011;34426;52.180;4.462;2023-03-05T08:10:46;10.50;;;1.40;;
48629;SDS011;34426;52.180;4.462;2023-03-05T08:13:11;9.02;;;1.05;;
48629;SDS011;34426;52.180;4.462;2023-03-05T08:15:37;9.35;;;0.77;;
48629;SDS011;34426;52.180;4.462;2023-03-05T08:18:03;8.05;;;0.77;;
48629;SDS011;34426;52.180;4.462;2023-03-05T08:20:30;5.75;;;0.90;;
48629;SDS011;34426;52.180;4.462;2023-03-05T08:22:58;7.32;;;1.20;;
48629;SDS011;34426;52.180;4.462;2023-03-05T08:25:24;6.10;;;0.70;;
48629;SDS011;34426;52.180;4.462;2023-03-05T08:27:49;3.63;;;0.73;;
48629;SDS011;34426;52.180;4.462;2023-03-05T08:30:16;12.68;;;1.10;;
48629;SDS011;34426;52.180;4.462;2023-03-05T08:32:44;4.55;;;0.70;;
48629;SDS011;34426;52.180;4.462;2023-03-05T08:35:10;6.90;;;0.98;;
48629;SDS011;34426;52.180;4.462;2023-03-05T08:37:37;5.60;;;1.38;;
48629;SDS011;34426;52.180;4.462;2023-03-05T08:40:03;5.18;;;0.75;;
48629;SDS011;34426;52.180;4.462;2023-03-05T08:42:29;4.07;;;1.05;;
48629;SDS011;34426;52.180;4.462;2023-03-05T08:44:55;7.97;;;0.80;;
48629;SDS011;34426;52.180;4.462;2023-03-05T08:47:20;3.70;;;0.73;;
48629;SDS011;34426;52.180;4.462;2023-03-05T08:49:46;6.07;;;0.85;;
48629;SDS011;34426;52.180;4.462;2023-03-05T08:52:11;10.25;;;1.08;;
48629;SDS011;34426;52.180;4.462;2023-03-05T08:54:38;5.25;;;0.93;;
48629;SDS011;34426;52.180;4.462;2023-03-05T08:57:04;7.38;;;0.73;;
48629;SDS011;34426;52.180;4.462;2023-03-05T08:59:29;5.68;;;1.00;;
48629;SDS011;34426;52.180;4.462;2023-03-05T09:01:58;3.58;;;1.10;;
48629;SDS011;34426;52.180;4.462;2023-03-05T09:04:24;7.85;;;0.93;;
48629;SDS011;34426;52.180;4.462;2023-03-05T09:06:49;4.25;;;1.13;;
48629;SDS011;34426;52.180;4.462;2023-03-05T09:09:15;7.50;;;1.02;;
48629;SDS011;34426;52.180;4.462;2023-03-05T09:11:42;9.35;;;1.05;;
48629;SDS011;34426;52.180;4.462;2023-03-05T09:14:08;6.38;;;0.82;;
48629;SDS011;34426;52.180;4.462;2023-03-05T09:16:34;2.17;;;0.50;;
48629;SDS011;34426;52.180;4.462;2023-03-05T09:18:59;5.03;;;0.77;;
48629;SDS011;34426;52.180;4.462;2023-03-05T09:21:25;3.28;;;0.70;;
48629;SDS011;34426;52.180;4.462;2023-03-05T09:23:51;11.70;;;0.95;;
48629;SDS011;34426;52.180;4.462;2023-03-05T09:26:17;4.18;;;0.68;;
48629;SDS011;34426;52.180;4.462;2023-03-05T09:28:44;4.57;;;0.80;;
48629;SDS011;34426;52.180;4.462;2023-03-05T09:31:10;2.22;;;0.65;;
48629;SDS011;34426;52.180;4.462;2023-03-05T09:33:36;5.47;;;0.73;;
48629;SDS011;34426;52.180;4.462;2023-03-05T09:36:03;7.35;;;0.90;;
48629;SDS011;34426;52.180;4.462;2023-03-05T09:38:40;4.13;;;0.82;;
48629;SDS011;34426;52.180;4.462;2023-03-05T09:41:11;5.28;;;0.70;;
48629;SDS011;34426;52.180;4.462;2023-03-05T09:43:43;2.65;;;0.80;;
48629;SDS011;34426;52.180;4.462;2023-03-05T09:46:23;8.23;;;0.75;;
48629;SDS011;34426;52.180;4.462;2023-03-05T09:48:56;2.70;;;0.70;;
48629;SDS011;34426;52.180;4.462;2023-03-05T09:51:31;8.02;;;0.77;;
48629;SDS011;34426;52.180;4.462;2023-03-05T09:54:03;3.25;;;0.80;;
48629;SDS011;34426;52.180;4.462;2023-03-05T09:56:31;3.60;;;0.63;;
48629;SDS011;34426;52.180;4.462;2023-03-05T09:59:04;3.38;;;0.63;;
48629;SDS011;34426;52.180;4.462;2023-03-05T10:01:44;2.85;;;0.70;;
48629;SDS011;34426;52.180;4.462;2023-03-05T10:04:13;5.95;;;0.93;;
48629;SDS011;34426;52.180;4.462;2023-03-05T10:06:45;5.95;;;0.90;;
48629;SDS011;34426;52.180;4.462;2023-03-05T10:09:16;2.97;;;0.60;;
48629;SDS011;34426;52.180;4.462;2023-03-05T10:11:56;7.32;;;0.85;;
48629;SDS011;34426;52.180;4.462;2023-03-05T10:14:27;4.22;;;0.70;;
48629;SDS011;34426;52.180;4.462;2023-03-05T10:16:59;3.80;;;0.60;;
48629;SDS011;34426;52.180;4.462;2023-03-05T10:19:39;4.63;;;1.00;;
48629;SDS011;34426;52.180;4.462;2023-03-05T10:22:17;3.10;;;0.65;;
48629;SDS011;34426;52.180;4.462;2023-03-05T10:24:48;3.50;;;0.80;;
48629;SDS011;34426;52.180;4.462;2023-03-05T10:27:31;3.58;;;0.80;;
48629;SDS011;34426;52.180;4.462;2023-03-05T10:30:06;3.75;;;0.80;;
48629;SDS011;34426;52.180;4.462;2023-03-05T10:32:57;8.15;;;1.67;;
48629;SDS011;34426;52.180;4.462;2023-03-05T10:35:39;4.30;;;0.70;;
48629;SDS011;34426;52.180;4.462;2023-03-05T10:38:21;5.03;;;0.70;;
48629;SDS011;34426;52.180;4.462;2023-03-05T10:40:57;6.45;;;1.00;;
48629;SDS011;34426;52.180;4.462;2023-03-05T10:43:30;6.25;;;0.65;;
48629;SDS011;34426;52.180;4.462;2023-03-05T10:46:08;9.23;;;1.27;;
48629;SDS011;34426;52.180;4.462;2023-03-05T10:48:41;11.05;;;1.08;;
48629;SDS011;34426;52.180;4.462;2023-03-05T10:51:16;5.80;;;1.00;;
48629;SDS011;34426;52.180;4.462;2023-03-05T10:53:47;6.28;;;0.85;;
48629;SDS011;34426;52.180;4.462;2023-03-05T10:56:20;5.32;;;1.02;;
48629;SDS011;34426;52.180;4.462;2023-03-05T10:58:47;5.55;;;1.15;;
48629;SDS011;34426;52.180;4.462;2023-03-05T11:01:21;2.60;;;0.52;;
48629;SDS011;34426;52.180;4.462;2023-03-05T11:03:50;3.13;;;0.75;;
48629;SDS011;34426;52.180;4.462;2023-03-05T11:06:27;3.67;;;0.65;;
48629;SDS011;34426;52.180;4.462;2023-03-05T11:08:55;5.72;;;0.80;;
48629;SDS011;34426;52.180;4.462;2023-03-05T11:11:38;4.72;;;0.85;;
48629;SDS011;34426;52.180;4.462;2023-03-05T11:14:04;3.85;;;0.60;;
48629;SDS011;34426;52.180;4.462;2023-03-05T11:16:31;4.80;;;0.95;;
48629;SDS011;34426;52.180;4.462;2023-03-05T11:19:15;7.68;;;1.90;;
48629;SDS011;34426;52.180;4.462;2023-03-05T11:21:43;7.65;;;1.00;;
48629;SDS011;34426;52.180;4.462;2023-03-05T11:24:11;6.82;;;1.15;;
48629;SDS011;34426;52.180;4.462;2023-03-05T11:26:37;5.32;;;1.10;;
48629;SDS011;34426;52.180;4.462;2023-03-05T11:29:15;4.10;;;0.70;;
48629;SDS011;34426;52.180;4.462;2023-03-05T11:31:44;3.78;;;0.80;;
48629;SDS011;34426;52.180;4.462;2023-03-05T11:34:20;3.08;;;0.50;;
48629;SDS011;34426;52.180;4.462;2023-03-05T11:36:57;3.33;;;0.68;;
48629;SDS011;34426;52.180;4.462;2023-03-05T11:39:24;4.93;;;0.65;;
48629;SDS011;34426;52.180;4.462;2023-03-05T11:41:50;8.93;;;0.90;;
48629;SDS011;34426;52.180;4.462;2023-03-05T11:44:19;4.53;;;0.80;;
48629;SDS011;34426;52.180;4.462;2023-03-05T11:46:49;5.18;;;0.70;;
48629;SDS011;34426;52.180;4.462;2023-03-05T11:49:19;5.40;;;0.75;;
48629;SDS011;34426;52.180;4.462;2023-03-05T11:51:51;6.15;;;0.60;;
48629;SDS011;34426;52.180;4.462;2023-03-05T11:54:25;8.85;;;1.05;;
48629;SDS011;34426;52.180;4.462;2023-03-05T11:56:56;6.35;;;0.80;;
48629;SDS011;34426;52.180;4.462;2023-03-05T11:59:22;3.08;;;0.77;;
48629;SDS011;34426;52.180;4.462;2023-03-05T12:01:53;5.63;;;1.10;;
48629;SDS011;34426;52.180;4.462;2023-03-05T12:04:20;7.25;;;0.80;;
48629;SDS011;34426;52.180;4.462;2023-03-05T12:06:48;4.65;;;0.50;;
48629;SDS011;34426;52.180;4.462;2023-03-05T12:09:17;3.17;;;0.50;;
48629;SDS011;34426;52.180;4.462;2023-03-05T12:14:15;2.75;;;0.47;;
48629;SDS011;34426;52.180;4.462;2023-03-05T12:16:48;4.43;;;1.02;;
48629;SDS011;34426;52.180;4.462;2023-03-05T12:19:28;6.00;;;0.85;;
48629;SDS011;34426;52.180;4.462;2023-03-05T12:21:57;3.53;;;0.43;;
48629;SDS011;34426;52.180;4.462;2023-03-05T12:24:33;7.85;;;0.98;;
48629;SDS011;34426;52.180;4.462;2023-03-05T12:27:05;6.45;;;0.60;;
48629;SDS011;34426;52.180;4.462;2023-03-05T12:29:37;5.28;;;0.77;;
48629;SDS011;34426;52.180;4.462;2023-03-05T12:32:05;5.22;;;0.80;;
48629;SDS011;34426;52.180;4.462;2023-03-05T12:35:25;4.78;;;0.60;;
48629;SDS011;34426;52.180;4.462;2023-03-05T12:37:56;5.18;;;1.00;;
48629;SDS011;34426;52.180;4.462;2023-03-05T12:40:40;7.32;;;1.00;;
48629;SDS011;34426;52.180;4.462;2023-03-05T12:43:09;3.45;;;0.77;;
48629;SDS011;34426;52.180;4.462;2023-03-05T12:45:52;6.90;;;0.98;;
48629;SDS011;34426;52.180;4.462;2023-03-05T12:48:49;7.82;;;1.20;;
48629;SDS011;34426;52.180;4.462;2023-03-05T12:51:27;3.90;;;0.82;;
48629;SDS011;34426;52.180;4.462;2023-03-05T12:54:11;5.22;;;1.00;;
48629;SDS011;34426;52.180;4.462;2023-03-05T12:56:48;6.38;;;0.95;;
48629;SDS011;34426;52.180;4.462;2023-03-05T12:59:16;8.05;;;0.60;;
48629;SDS011;34426;52.180;4.462;2023-03-05T13:01:48;2.17;;;0.60;;
48629;SDS011;34426;52.180;4.462;2023-03-05T13:04:21;2.15;;;0.60;;
48629;SDS011;34426;52.180;4.462;2023-03-05T13:06:56;9.20;;;0.90;;
48629;SDS011;34426;52.180;4.462;2023-03-05T13:09:23;5.55;;;0.80;;
48629;SDS011;34426;52.180;4.462;2023-03-05T13:11:50;3.97;;;0.82;;
48629;SDS011;34426;52.180;4.462;2023-03-05T13:14:29;5.47;;;1.52;;
48629;SDS011;34426;52.180;4.462;2023-03-05T13:16:59;5.57;;;0.88;;
48629;SDS011;34426;52.180;4.462;2023-03-05T13:19:25;6.50;;;1.85;;
48629;SDS011;34426;52.180;4.462;2023-03-05T13:21:59;7.82;;;1.35;;
48629;SDS011;34426;52.180;4.462;2023-03-05T13:24:25;5.50;;;1.00;;
48629;SDS011;34426;52.180;4.462;2023-03-05T13:26:51;6.93;;;1.05;;
48629;SDS011;34426;52.180;4.462;2023-03-05T13:29:17;6.85;;;1.67;;
48629;SDS011;34426;52.180;4.462;2023-03-05T13:31:44;3.97;;;0.80;;
48629;SDS011;34426;52.180;4.462;2023-03-05T13:34:15;3.92;;;0.93;;
48629;SDS011;34426;52.180;4.462;2023-03-05T13:36:45;3.88;;;0.70;;
48629;SDS011;34426;52.180;4.462;2023-03-05T13:39:17;4.40;;;1.00;;
48629;SDS011;34426;52.180;4.462;2023-03-05T13:41:56;7.60;;;1.50;;
48629;SDS011;34426;52.180;4.462;2023-03-05T13:44:26;5.00;;;0.75;;
48629;SDS011;34426;52.180;4.462;2023-03-05T13:46:52;2.92;;;0.80;;
48629;SDS011;34426;52.180;4.462;2023-03-05T13:49:20;6.13;;;1.05;;
48629;SDS011;34426;52.180;4.462;2023-03-05T13:51:47;3.15;;;0.82;;
48629;SDS011;34426;52.180;4.462;2023-03-05T13:54:15;13.13;;;0.98;;
48629;SDS011;34426;52.180;4.462;2023-03-05T13:56:51;7.78;;;0.77;;
48629;SDS011;34426;52.180;4.462;2023-03-05T13:59:22;12.68;;;1.08;;
48629;SDS011;34426;52.180;4.462;2023-03-05T14:01:49;4.80;;;1.10;;
48629;SDS011;34426;52.180;4.462;2023-03-05T14:04:17;6.38;;;1.42;;
48629;SDS011;34426;52.180;4.462;2023-03-05T14:06:47;5.25;;;0.85;;
48629;SDS011;34426;52.180;4.462;2023-03-05T14:09:17;9.88;;;0.80;;
48629;SDS011;34426;52.180;4.462;2023-03-05T14:11:50;3.75;;;0.80;;
48629;SDS011;34426;52.180;4.462;2023-03-05T14:14:20;5.80;;;0.90;;
48629;SDS011;34426;52.180;4.462;2023-03-05T14:16:47;5.57;;;0.77;;
48629;SDS011;34426;52.180;4.462;2023-03-05T14:19:29;5.50;;;0.57;;
48629;SDS011;34426;52.180;4.462;2023-03-05T14:21:56;3.42;;;0.60;;
48629;SDS011;34426;52.180;4.462;2023-03-05T14:24:23;5.60;;;0.88;;
48629;SDS011;34426;52.180;4.462;2023-03-05T14:26:50;2.08;;;0.50;;
48629;SDS011;34426;52.180;4.462;2023-03-05T14:29:18;6.32;;;0.90;;
48629;SDS011;34426;52.180;4.462;2023-03-05T14:31:47;7.70;;;1.10;;
48629;SDS011;34426;52.180;4.462;2023-03-05T14:34:17;8.40;;;0.98;;
48629;SDS011;34426;52.180;4.462;2023-03-05T14:36:51;10.45;;;0.80;;
48629;SDS011;34426;52.180;4.462;2023-03-05T14:39:24;3.45;;;0.80;;
48629;SDS011;34426;52.180;4.462;2023-03-05T14:41:52;2.13;;;0.63;;
48629;SDS011;34426;52.180;4.462;2023-03-05T14:44:18;7.20;;;1.05;;
48629;SDS011;34426;52.180;4.462;2023-03-05T14:46:46;14.68;;;1.67;;
48629;SDS011;34426;52.180;4.462;2023-03-05T14:49:13;7.70;;;1.38;;
48629;SDS011;34426;52.180;4.462;2023-03-05T14:51:40;9.68;;;1.40;;
48629;SDS011;34426;52.180;4.462;2023-03-05T14:54:19;6.72;;;0.85;;